LNWLF12 KNKX-KNKX
Flight info
| Callsign | LNWLF12 |
|---|---|
| Flight time | 0h 2m |
| Altitude | 6000 |
| Route | REDIN4 REDIN EIREE SXC OCN |
| Aircraft | H60/L-DGILORTUVY/SB2 |
Departure
| Time | 2026-04-22 23:31 |
|---|---|
| Airport | Miramar Marine Corps Air Station - Mitscher Field (KNKX) |
Arrival
| Time | 2026-04-22 23:33 |
|---|---|
| Airport | Miramar Marine Corps Air Station - Mitscher Field (KNKX) |
| Time | Latitude | Longitude | Altitude | Speed | Heading |
|---|---|---|---|---|---|
| 2026-04-22 23:08 | 32.87338 | -117.14313 | 484 ft | 0 kts | 261° |
| 2026-04-22 23:27 | 32.87338 | -117.14320 | 467 ft | 6 kts | 229° |
| 2026-04-22 23:28 | 32.87294 | -117.14334 | 465 ft | 5 kts | 167° |
| 2026-04-22 23:28 | 32.87293 | -117.14334 | 465 ft | 0 kts | 168° |
| 2026-04-22 23:28 | 32.87286 | -117.14332 | 465 ft | 2 kts | 167° |
| 2026-04-22 23:29 | 32.87283 | -117.14331 | 465 ft | 0 kts | 167° |
| 2026-04-22 23:29 | 32.87267 | -117.14326 | 463 ft | 6 kts | 165° |
| 2026-04-22 23:29 | 32.87212 | -117.14307 | 465 ft | 8 kts | 162° |
| 2026-04-22 23:30 | 32.87180 | -117.14299 | 479 ft | 2 kts | 175° |
| 2026-04-22 23:30 | 32.87204 | -117.14288 | 660 ft | 6 kts | 223° |
| 2026-04-22 23:30 | 32.87072 | -117.14617 | 1003 ft | 78 kts | 257° |
| 2026-04-22 23:30 | 32.86923 | -117.15454 | 982 ft | 126 kts | 264° |
| 2026-04-22 23:31 | 32.86801 | -117.16523 | 1077 ft | 137 kts | 266° |
| 2026-04-22 23:31 | 32.86711 | -117.17726 | 1090 ft | 147 kts | 270° |
| 2026-04-22 23:31 | 32.86681 | -117.18952 | 1446 ft | 155 kts | 275° |
| 2026-04-22 23:31 | 32.86753 | -117.20327 | 1180 ft | 173 kts | 277° |
| 2026-04-22 23:32 | 32.86886 | -117.21695 | 1257 ft | 156 kts | 279° |
| 2026-04-22 23:32 | 32.87065 | -117.22657 | 2250 ft | 75 kts | 288° |
| 2026-04-22 23:32 | 32.87170 | -117.23152 | 2287 ft | 61 kts | 287° |
| 2026-04-22 23:32 | 32.87245 | -117.23679 | 2050 ft | 65 kts | 284° |
| 2026-04-22 23:33 | 32.87306 | -117.24394 | 1503 ft | 102 kts | 280° |
| 2026-04-22 23:33 | 32.87386 | -117.25170 | 1453 ft | 78 kts | 282° |
| 2026-04-22 23:33 | 32.87446 | -117.25640 | 1563 ft | 37 kts | 286° |
| 2026-04-22 23:33 | 32.87451 | -117.25814 | 1615 ft | 7 kts | 291° |
| 2026-04-22 23:34 | 32.87462 | -117.26013 | 1763 ft | 56 kts | 293° |
| 2026-04-22 23:34 | 32.87566 | -117.26489 | 2595 ft | 75 kts | 289° |
| 2026-04-22 23:34 | 32.87711 | -117.27249 | 3087 ft | 109 kts | 285° |
| 2026-04-22 23:34 | 32.87845 | -117.28106 | 3597 ft | 97 kts | 284° |
| 2026-04-22 23:35 | 32.87953 | -117.28924 | 4218 ft | 110 kts | 284° |
| 2026-04-22 23:35 | 32.88148 | -117.29942 | 4207 ft | 141 kts | 287° |
| 2026-04-22 23:35 | 32.88416 | -117.31113 | 3878 ft | 147 kts | 288° |
| 2026-04-22 23:35 | 32.88628 | -117.32256 | 3809 ft | 141 kts | 280° |
| 2026-04-22 23:36 | 32.88716 | -117.33435 | 3549 ft | 147 kts | 273° |
| 2026-04-22 23:36 | 32.88273 | -117.34444 | 2786 ft | 141 kts | 202° |
| 2026-04-22 23:36 | 32.87327 | -117.34521 | 2450 ft | 142 kts | 152° |
| 2026-04-22 23:36 | 32.86679 | -117.33656 | 2005 ft | 149 kts | 96° |
| 2026-04-22 23:37 | 32.86756 | -117.32565 | 1236 ft | 117 kts | 21° |
| 2026-04-22 23:37 | 32.87356 | -117.31887 | 1442 ft | 128 kts | 9° |
| 2026-04-22 23:37 | 32.88139 | -117.31552 | 1551 ft | 92 kts | 341° |
| 2026-04-22 23:37 | 32.88602 | -117.31793 | 1728 ft | 47 kts | 290° |
| 2026-04-22 23:38 | 32.88609 | -117.31920 | 1804 ft | 34 kts | 298° |
| 2026-04-22 23:38 | 32.88840 | -117.32380 | 1910 ft | 88 kts | 303° |
| 2026-04-22 23:38 | 32.89250 | -117.33054 | 1527 ft | 109 kts | 306° |
| 2026-04-22 23:38 | 32.89740 | -117.33738 | 1185 ft | 102 kts | 312° |
| 2026-04-22 23:39 | 32.90214 | -117.34266 | 1349 ft | 87 kts | 317° |
| 2026-04-22 23:39 | 32.90642 | -117.34741 | 1309 ft | 80 kts | 312° |
| 2026-04-22 23:39 | 32.90866 | -117.35291 | 1330 ft | 68 kts | 294° |
| 2026-04-22 23:39 | 32.90950 | -117.35622 | 1395 ft | 60 kts | 291° |
| 2026-04-22 23:40 | 32.91076 | -117.36085 | 1433 ft | 59 kts | 293° |
| 2026-04-22 23:40 | 32.91174 | -117.36529 | 1483 ft | 52 kts | 292° |
| 2026-04-22 23:40 | 32.91253 | -117.36943 | 1507 ft | 52 kts | 290° |
| 2026-04-22 23:40 | 32.91285 | -117.37487 | 1578 ft | 48 kts | 282° |
| 2026-04-22 23:41 | 32.91294 | -117.37767 | 1591 ft | 51 kts | 283° |
| 2026-04-22 23:41 | 32.91409 | -117.38138 | 1647 ft | 43 kts | 322° |
| 2026-04-22 23:41 | 32.91694 | -117.38116 | 1978 ft | 56 kts | 27° |
| 2026-04-22 23:41 | 32.92048 | -117.37679 | 2297 ft | 96 kts | 55° |
| 2026-04-22 23:42 | 32.92519 | -117.36950 | 2506 ft | 123 kts | 45° |
| 2026-04-22 23:42 | 32.93189 | -117.36340 | 2797 ft | 129 kts | 16° |
| 2026-04-22 23:42 | 32.94062 | -117.36745 | 2780 ft | 147 kts | 318° |
| 2026-04-22 23:42 | 32.94389 | -117.37881 | 2938 ft | 152 kts | 274° |
| 2026-04-22 23:43 | 32.94295 | -117.39086 | 3405 ft | 145 kts | 269° |
| 2026-04-22 23:43 | 32.94215 | -117.40296 | 3470 ft | 152 kts | 269° |
| 2026-04-22 23:43 | 32.94117 | -117.41517 | 3481 ft | 148 kts | 267° |
| 2026-04-22 23:43 | 32.93956 | -117.42704 | 3472 ft | 144 kts | 264° |
| 2026-04-22 23:44 | 32.93785 | -117.43866 | 3471 ft | 141 kts | 264° |
| 2026-04-22 23:44 | 32.93597 | -117.44997 | 3472 ft | 138 kts | 264° |
| 2026-04-22 23:44 | 32.93436 | -117.46121 | 3476 ft | 137 kts | 264° |
| 2026-04-22 23:44 | 32.93259 | -117.47232 | 3479 ft | 136 kts | 264° |
| 2026-04-22 23:45 | 32.93062 | -117.48327 | 3487 ft | 135 kts | 264° |
| 2026-04-22 23:45 | 32.92856 | -117.49416 | 3488 ft | 134 kts | 264° |
| 2026-04-22 23:45 | 32.92682 | -117.50515 | 3493 ft | 136 kts | 264° |
| 2026-04-22 23:45 | 32.92504 | -117.51608 | 3491 ft | 137 kts | 264° |
| 2026-04-22 23:46 | 32.92315 | -117.52719 | 3492 ft | 137 kts | 264° |
| 2026-04-22 23:46 | 32.92110 | -117.53827 | 3498 ft | 137 kts | 264° |
| 2026-04-22 23:46 | 32.91930 | -117.54933 | 3503 ft | 137 kts | 265° |
| 2026-04-22 23:46 | 32.91732 | -117.56045 | 3515 ft | 138 kts | 264° |
| 2026-04-22 23:47 | 32.91564 | -117.57178 | 3512 ft | 140 kts | 264° |
| 2026-04-22 23:47 | 32.91394 | -117.58313 | 3506 ft | 140 kts | 264° |
| 2026-04-22 23:47 | 32.91229 | -117.59459 | 3493 ft | 141 kts | 264° |
| 2026-04-22 23:47 | 32.91049 | -117.60594 | 3491 ft | 139 kts | 264° |
| 2026-04-22 23:48 | 32.90870 | -117.61713 | 3508 ft | 139 kts | 264° |
| 2026-04-22 23:48 | 32.90662 | -117.62814 | 3503 ft | 135 kts | 264° |
| 2026-04-22 23:48 | 32.90477 | -117.63918 | 3482 ft | 136 kts | 264° |
| 2026-04-22 23:48 | 32.90305 | -117.65030 | 3483 ft | 137 kts | 264° |
| 2026-04-22 23:49 | 32.90135 | -117.66149 | 3486 ft | 138 kts | 265° |
| 2026-04-22 23:49 | 32.89920 | -117.67254 | 3487 ft | 136 kts | 264° |
| 2026-04-22 23:49 | 32.89721 | -117.68349 | 3488 ft | 135 kts | 264° |
| 2026-04-22 23:49 | 32.89520 | -117.69449 | 3490 ft | 136 kts | 264° |
| 2026-04-22 23:50 | 32.89339 | -117.70555 | 3494 ft | 137 kts | 264° |
| 2026-04-22 23:50 | 32.89138 | -117.71643 | 3491 ft | 136 kts | 264° |
| 2026-04-22 23:50 | 32.88963 | -117.72756 | 3491 ft | 138 kts | 264° |
| 2026-04-22 23:50 | 32.88788 | -117.73879 | 3491 ft | 138 kts | 264° |
| 2026-04-22 23:51 | 32.88590 | -117.74995 | 3506 ft | 136 kts | 264° |
| 2026-04-22 23:51 | 32.88375 | -117.76096 | 3508 ft | 136 kts | 264° |
| 2026-04-22 23:51 | 32.88206 | -117.77223 | 3496 ft | 138 kts | 264° |
| 2026-04-22 23:51 | 32.88012 | -117.78344 | 3491 ft | 139 kts | 264° |
| 2026-04-22 23:52 | 32.87836 | -117.79471 | 3481 ft | 140 kts | 264° |
| 2026-04-22 23:52 | 32.87656 | -117.80608 | 3479 ft | 139 kts | 264° |
| 2026-04-22 23:52 | 32.87493 | -117.81743 | 3482 ft | 139 kts | 264° |
| 2026-04-22 23:52 | 32.87299 | -117.82864 | 3484 ft | 137 kts | 264° |
| 2026-04-22 23:53 | 32.87096 | -117.83971 | 3485 ft | 137 kts | 264° |
| 2026-04-22 23:53 | 32.86902 | -117.85074 | 3485 ft | 137 kts | 264° |
| 2026-04-22 23:53 | 32.86725 | -117.86185 | 3490 ft | 137 kts | 264° |
| 2026-04-22 23:53 | 32.86534 | -117.87295 | 3505 ft | 137 kts | 264° |
| 2026-04-22 23:54 | 32.86362 | -117.88407 | 3488 ft | 137 kts | 264° |
| 2026-04-22 23:54 | 32.86153 | -117.89488 | 3503 ft | 134 kts | 264° |
| 2026-04-22 23:54 | 32.85948 | -117.90579 | 3509 ft | 134 kts | 264° |
| 2026-04-22 23:54 | 32.85741 | -117.91661 | 3482 ft | 134 kts | 264° |
| 2026-04-22 23:55 | 32.85551 | -117.92747 | 3483 ft | 134 kts | 264° |
| 2026-04-22 23:55 | 32.85360 | -117.93837 | 3485 ft | 135 kts | 264° |
| 2026-04-22 23:55 | 32.85199 | -117.94940 | 3485 ft | 136 kts | 264° |
| 2026-04-22 23:55 | 32.85024 | -117.96046 | 3487 ft | 137 kts | 264° |
| 2026-04-22 23:56 | 32.84817 | -117.97141 | 3491 ft | 135 kts | 264° |
| 2026-04-22 23:56 | 32.84621 | -117.98233 | 3489 ft | 135 kts | 264° |
| 2026-04-22 23:56 | 32.84464 | -117.99348 | 3491 ft | 137 kts | 264° |
| 2026-04-22 23:56 | 32.84303 | -118.00467 | 3490 ft | 137 kts | 264° |
| 2026-04-22 23:57 | 32.84136 | -118.01587 | 3491 ft | 137 kts | 264° |
| 2026-04-22 23:57 | 32.83947 | -118.02692 | 3491 ft | 135 kts | 264° |
| 2026-04-22 23:57 | 32.83769 | -118.03781 | 3496 ft | 136 kts | 264° |
| 2026-04-22 23:57 | 32.83609 | -118.04884 | 3498 ft | 134 kts | 264° |
| 2026-04-22 23:58 | 32.83401 | -118.06042 | 3562 ft | 153 kts | 264° |
| 2026-04-22 23:58 | 32.83204 | -118.07263 | 3508 ft | 152 kts | 264° |
| 2026-04-22 23:58 | 32.83015 | -118.08495 | 3511 ft | 152 kts | 264° |
| 2026-04-22 23:58 | 32.82801 | -118.09698 | 3496 ft | 151 kts | 264° |
| 2026-04-22 23:59 | 32.82606 | -118.10902 | 3483 ft | 146 kts | 264° |
| 2026-04-22 23:59 | 32.82391 | -118.12086 | 3485 ft | 147 kts | 264° |
| 2026-04-22 23:59 | 32.82173 | -118.13272 | 3486 ft | 147 kts | 264° |
| 2026-04-22 23:59 | 32.81970 | -118.14476 | 3492 ft | 150 kts | 264° |
| 2026-04-23 00:00 | 32.81574 | -118.16897 | 3493 ft | 150 kts | 264° |
| 2026-04-23 00:00 | 32.81362 | -118.18094 | 3496 ft | 153 kts | 264° |
| 2026-04-23 00:00 | 32.81155 | -118.19305 | 3501 ft | 154 kts | 264° |
| 2026-04-23 00:01 | 32.80987 | -118.20554 | 3519 ft | 152 kts | 264° |
| 2026-04-23 00:01 | 32.80821 | -118.21788 | 3491 ft | 151 kts | 265° |
| 2026-04-23 00:01 | 32.80643 | -118.23017 | 3509 ft | 150 kts | 264° |
| 2026-04-23 00:01 | 32.80453 | -118.24189 | 3475 ft | 150 kts | 265° |
| 2026-04-23 00:02 | 32.80244 | -118.25386 | 3506 ft | 144 kts | 264° |
| 2026-04-23 00:02 | 32.80035 | -118.26576 | 3491 ft | 146 kts | 263° |
| 2026-04-23 00:02 | 32.79853 | -118.27792 | 3499 ft | 150 kts | 265° |
| 2026-04-23 00:02 | 32.79658 | -118.29014 | 3484 ft | 147 kts | 265° |
| 2026-04-23 00:03 | 32.79429 | -118.30169 | 3519 ft | 146 kts | 264° |
| 2026-04-23 00:03 | 32.79279 | -118.31319 | 3772 ft | 131 kts | 278° |
| 2026-04-23 00:03 | 32.79394 | -118.32384 | 3541 ft | 134 kts | 289° |
| 2026-04-23 00:03 | 32.79631 | -118.33395 | 3643 ft | 117 kts | 298° |
| 2026-04-23 00:04 | 32.79946 | -118.34291 | 3729 ft | 119 kts | 301° |
| 2026-04-23 00:04 | 32.80358 | -118.35198 | 3588 ft | 131 kts | 304° |
| 2026-04-23 00:04 | 32.80823 | -118.36181 | 3237 ft | 140 kts | 302° |
| 2026-04-23 00:04 | 32.81368 | -118.37152 | 2891 ft | 141 kts | 310° |
| 2026-04-23 00:05 | 32.81923 | -118.38073 | 2671 ft | 131 kts | 304° |
| 2026-04-23 00:05 | 32.82315 | -118.38986 | 2092 ft | 116 kts | 285° |
| 2026-04-23 00:05 | 32.82287 | -118.39747 | 2185 ft | 86 kts | 266° |
| 2026-04-23 00:05 | 32.82190 | -118.40471 | 2024 ft | 94 kts | 275° |
| 2026-04-23 00:06 | 32.82304 | -118.41244 | 2082 ft | 95 kts | 298° |
| 2026-04-23 00:06 | 32.82778 | -118.41694 | 2087 ft | 94 kts | 345° |
| 2026-04-23 00:06 | 32.83438 | -118.41614 | 1883 ft | 90 kts | 5° |
| 2026-04-23 00:06 | 32.84016 | -118.41527 | 1896 ft | 80 kts | 6° |
| 2026-04-23 00:07 | 32.84556 | -118.41401 | 1938 ft | 79 kts | 21° |
| 2026-04-23 00:07 | 32.85017 | -118.41148 | 1946 ft | 60 kts | 107° |
| 2026-04-23 00:07 | 32.85131 | -118.40866 | 1702 ft | 25 kts | 165° |
| 2026-04-23 00:07 | 32.84938 | -118.40791 | 1477 ft | 32 kts | 178° |
| 2026-04-23 00:08 | 32.84731 | -118.40803 | 1343 ft | 35 kts | 184° |
| 2026-04-23 00:08 | 32.84502 | -118.40845 | 1263 ft | 31 kts | 182° |
| 2026-04-23 00:08 | 32.84353 | -118.40874 | 1092 ft | 14 kts | 82° |
| 2026-04-23 00:08 | 32.84170 | -118.40884 | 991 ft | 34 kts | 211° |
| 2026-04-23 00:09 | 32.84022 | -118.40964 | 922 ft | 14 kts | 208° |
| 2026-04-23 00:09 | 32.83956 | -118.41012 | 916 ft | 12 kts | 214° |
| 2026-04-23 00:09 | 32.83944 | -118.41022 | 914 ft | 0 kts | 213° |